createdAt,value
2023-03-12T00:02:17.493Z,0.60
2023-03-12T00:04:41.300Z,0.60
2023-03-12T00:07:06.647Z,0.60
2023-03-12T00:09:30.263Z,0.60
2023-03-12T00:11:53.799Z,0.60
2023-03-12T00:14:17.453Z,0.60
2023-03-12T00:16:40.961Z,0.60
2023-03-12T00:19:04.628Z,0.60
2023-03-12T00:21:28.221Z,0.60
2023-03-12T00:23:54.247Z,0.50
2023-03-12T00:26:18.755Z,0.60
2023-03-12T00:28:42.743Z,0.60
2023-03-12T00:31:17.251Z,0.60
2023-03-12T00:33:40.810Z,0.60
2023-03-12T00:36:04.630Z,0.60
2023-03-12T00:38:28.238Z,0.60
2023-03-12T00:40:53.214Z,0.60
2023-03-12T00:43:16.853Z,0.70
2023-03-12T00:45:40.844Z,0.70
2023-03-12T00:48:04.641Z,0.70
2023-03-12T00:50:28.238Z,0.80
2023-03-12T00:52:52.322Z,0.80
2023-03-12T00:55:15.963Z,0.90
2023-03-12T00:57:40.924Z,0.90
2023-03-12T01:00:09.889Z,0.90
2023-03-12T01:02:33.544Z,0.90
2023-03-12T01:04:57.088Z,0.90
2023-03-12T01:07:21.985Z,0.90
2023-03-12T01:09:45.645Z,0.90
2023-03-12T01:12:09.894Z,1.00
2023-03-12T01:14:35.029Z,0.90
2023-03-12T01:16:58.633Z,0.90
2023-03-12T01:19:22.229Z,1.00
2023-03-12T01:21:46.070Z,1.00
2023-03-12T01:24:10.239Z,1.00
2023-03-12T01:26:33.896Z,1.00
2023-03-12T01:28:57.547Z,1.00
2023-03-12T01:31:22.882Z,1.00
2023-03-12T01:33:47.557Z,1.00
2023-03-12T01:36:19.021Z,1.10
2023-03-12T01:38:42.624Z,1.10
2023-03-12T01:41:06.326Z,1.10
2023-03-12T01:43:33.705Z,1.20
2023-03-12T01:46:33.348Z,1.20
2023-03-12T01:49:04.955Z,1.20
2023-03-12T01:51:33.082Z,1.30
2023-03-12T01:54:01.525Z,1.30
2023-03-12T01:56:32.256Z,1.30
2023-03-12T01:59:01.088Z,1.40
2023-03-12T02:01:25.497Z,1.40
2023-03-12T02:03:55.346Z,1.40
2023-03-12T02:06:26.253Z,1.40
2023-03-12T02:08:50.283Z,1.40
2023-03-12T02:11:14.219Z,1.40
2023-03-12T02:13:38.670Z,1.50
2023-03-12T02:16:02.439Z,1.50
2023-03-12T02:18:26.831Z,1.50
2023-03-12T02:21:01.284Z,1.40
2023-03-12T02:23:33.625Z,1.40
2023-03-12T02:26:00.138Z,1.30
2023-03-12T02:28:29.728Z,1.40
2023-03-12T02:30:57.182Z,1.30
2023-03-12T02:33:20.964Z,1.20
2023-03-12T02:35:46.953Z,1.20
2023-03-12T02:38:35.144Z,1.20
2023-03-12T02:41:02.430Z,1.10
2023-03-12T02:43:27.025Z,1.10
2023-03-12T02:45:51.547Z,1.10
2023-03-12T02:48:15.108Z,1.00
2023-03-12T02:50:38.689Z,0.90
2023-03-12T02:53:02.249Z,0.90
2023-03-12T02:55:25.850Z,0.80
2023-03-12T02:57:50.792Z,0.80
2023-03-12T03:00:17.672Z,0.70
2023-03-12T03:02:45.783Z,0.70
2023-03-12T03:05:12.253Z,0.70
2023-03-12T03:07:36.136Z,0.60
2023-03-12T03:10:04.017Z,0.60
2023-03-12T03:12:27.837Z,0.60
2023-03-12T03:14:52.872Z,0.50
2023-03-12T03:17:16.449Z,0.50
2023-03-12T03:19:40.080Z,0.40
2023-03-12T03:22:03.634Z,0.40
2023-03-12T03:24:27.553Z,0.40
2023-03-12T03:26:51.177Z,0.40
2023-03-12T03:29:15.354Z,0.40
2023-03-12T03:31:40.288Z,0.40
2023-03-12T03:34:03.869Z,0.30
2023-03-12T03:36:27.904Z,0.30
2023-03-12T03:39:05.713Z,0.20
2023-03-12T03:41:29.664Z,0.20
2023-03-12T03:43:57.626Z,0.20
2023-03-12T03:46:21.282Z,0.10
2023-03-12T03:48:52.442Z,0.10
2023-03-12T03:51:17.380Z,0.10
2023-03-12T03:53:43.875Z,0.10
2023-03-12T03:56:09.345Z,0.10
2023-03-12T03:58:35.318Z,0.10
2023-03-12T04:00:59.014Z,0.00
2023-03-12T04:03:22.812Z,0.00
2023-03-12T04:05:47.838Z,0.00
2023-03-12T04:08:12.125Z,0.00
2023-03-12T04:10:36.293Z,0.00
2023-03-12T04:13:00.049Z,-0.10
2023-03-12T04:15:23.928Z,-0.10
2023-03-12T04:17:47.648Z,-0.10
2023-03-12T04:20:13.276Z,-0.10
2023-03-12T04:22:39.872Z,-0.20
2023-03-12T04:25:04.151Z,-0.20
2023-03-12T04:27:27.691Z,-0.20
2023-03-12T04:29:51.285Z,-0.20
2023-03-12T04:32:14.963Z,-0.20
2023-03-12T04:34:38.577Z,-0.20
2023-03-12T04:37:03.150Z,-0.30
2023-03-12T04:39:28.664Z,-0.30
2023-03-12T04:41:52.313Z,-0.30
2023-03-12T04:44:16.600Z,-0.30
2023-03-12T04:46:41.043Z,-0.30
2023-03-12T04:49:06.203Z,-0.30
2023-03-12T04:51:33.192Z,-0.30
2023-03-12T04:53:59.320Z,-0.30
2023-03-12T04:56:24.545Z,-0.30
2023-03-12T04:58:49.381Z,-0.30
2023-03-12T05:01:25.535Z,-0.30
2023-03-12T05:03:49.540Z,-0.30
2023-03-12T05:06:13.180Z,-0.40
2023-03-12T05:08:36.920Z,-0.40
2023-03-12T05:11:00.489Z,-0.40
2023-03-12T05:13:25.619Z,-0.40
2023-03-12T05:15:53.614Z,-0.40
2023-03-12T05:18:20.321Z,-0.40
2023-03-12T05:20:44.392Z,-0.50
2023-03-12T05:23:08.273Z,-0.40
2023-03-12T05:25:31.858Z,-0.40
2023-03-12T05:27:56.191Z,-0.50
2023-03-12T05:30:23.041Z,-0.50
2023-03-12T05:32:46.798Z,-0.50
2023-03-12T05:35:11.311Z,-0.50
2023-03-12T05:37:36.731Z,-0.50
2023-03-12T05:40:00.726Z,-0.50
2023-03-12T05:42:26.452Z,-0.50
2023-03-12T05:44:51.482Z,-0.50
2023-03-12T05:47:19.072Z,-0.50
2023-03-12T05:49:44.233Z,-0.50
2023-03-12T05:52:08.566Z,-0.50
2023-03-12T05:54:32.548Z,-0.50
2023-03-12T05:56:56.702Z,-0.50
2023-03-12T05:59:22.042Z,-0.50
2023-03-12T06:01:46.567Z,-0.50
2023-03-12T06:04:11.785Z,-0.50
2023-03-12T06:06:37.120Z,-0.40
2023-03-12T06:09:01.455Z,-0.40
2023-03-12T06:11:25.493Z,-0.40
2023-03-12T06:13:49.269Z,-0.40
2023-03-12T06:16:19.273Z,-0.40
2023-03-12T06:18:43.127Z,-0.30
2023-03-12T06:21:13.380Z,-0.20
2023-03-12T06:23:37.093Z,-0.20
2023-03-12T06:26:01.425Z,-0.20
2023-03-12T06:28:25.333Z,-0.10
2023-03-12T06:30:48.868Z,0.00
2023-03-12T06:33:12.420Z,0.00
2023-03-12T06:35:36.553Z,0.10
2023-03-12T06:38:01.512Z,0.20
2023-03-12T06:40:25.051Z,0.30
2023-03-12T06:42:48.798Z,0.30
2023-03-12T06:45:13.045Z,0.30
2023-03-12T06:47:36.599Z,0.30
2023-03-12T06:50:00.177Z,0.50
2023-03-12T06:52:23.862Z,1.00
2023-03-12T06:54:48.817Z,1.80
2023-03-12T06:57:12.403Z,2.80
2023-03-12T06:59:36.029Z,3.60
2023-03-12T07:01:59.599Z,4.50
2023-03-12T07:04:23.416Z,5.20
2023-03-12T07:06:50.445Z,5.80
2023-03-12T07:09:14.111Z,5.70
2023-03-12T07:11:39.015Z,5.70
2023-03-12T07:14:02.618Z,5.70
2023-03-12T07:16:26.321Z,5.60
2023-03-12T07:18:49.893Z,5.40
2023-03-12T07:21:13.441Z,5.20
2023-03-12T07:23:37.045Z,5.10
2023-03-12T07:26:00.595Z,4.80
2023-03-12T07:28:25.520Z,4.60
2023-03-12T07:30:50.634Z,4.70
2023-03-12T07:33:14.546Z,4.70
2023-03-12T07:35:39.796Z,4.60
2023-03-12T07:38:04.050Z,4.60
2023-03-12T07:40:27.749Z,4.60
2023-03-12T07:42:52.394Z,4.50
2023-03-12T07:45:17.530Z,4.30
2023-03-12T07:47:41.251Z,4.40
2023-03-12T07:50:05.379Z,4.30
2023-03-12T07:52:29.274Z,4.20
2023-03-12T07:54:54.370Z,4.00
2023-03-12T07:57:18.633Z,4.10
2023-03-12T07:59:42.305Z,4.20
2023-03-12T08:02:11.125Z,4.70
2023-03-12T08:04:34.809Z,4.70
2023-03-12T08:06:58.459Z,4.30
2023-03-12T08:09:22.031Z,4.30
2023-03-12T08:11:45.679Z,4.40
2023-03-12T08:14:09.270Z,4.50
2023-03-12T08:16:33.028Z,4.60
2023-03-12T08:18:58.184Z,4.50
2023-03-12T08:21:21.900Z,4.50
2023-03-12T08:23:45.626Z,4.50
2023-03-12T08:26:09.270Z,4.50
2023-03-12T08:28:32.824Z,4.50
2023-03-12T08:31:00.809Z,4.30
2023-03-12T08:33:24.473Z,4.40
2023-03-12T08:35:50.752Z,4.80
2023-03-12T08:38:14.607Z,5.20
2023-03-12T08:40:38.300Z,5.50
2023-03-12T08:43:01.883Z,5.80
2023-03-12T08:45:25.420Z,6.00
2023-03-12T08:47:49.224Z,5.80
2023-03-12T08:50:16.555Z,5.90
2023-03-12T08:52:41.838Z,6.30
2023-03-12T08:55:06.429Z,6.40
2023-03-12T08:57:30.284Z,6.20
2023-03-12T08:59:53.831Z,6.20
2023-03-12T09:02:17.387Z,6.30
2023-03-12T09:04:41.178Z,6.70
2023-03-12T09:07:04.982Z,7.30
2023-03-12T09:09:29.992Z,7.60
2023-03-12T09:11:54.447Z,8.10
2023-03-12T09:17:02.212Z,8.70
2023-03-12T09:19:25.841Z,9.20
2023-03-12T09:21:49.546Z,9.60
2023-03-12T09:24:13.752Z,9.70
2023-03-12T09:26:38.727Z,9.80
2023-03-12T09:29:02.357Z,9.70
2023-03-12T09:31:26.188Z,9.50
2023-03-12T09:33:49.735Z,9.50
2023-03-12T09:36:13.381Z,9.30
2023-03-12T09:38:38.022Z,9.30
2023-03-12T09:41:01.720Z,9.40
2023-03-12T09:43:35.577Z,9.30
2023-03-12T09:45:59.374Z,9.40
2023-03-12T09:48:31.064Z,9.60
2023-03-12T09:50:55.619Z,9.90
2023-03-12T09:53:28.407Z,10.10
2023-03-12T09:55:54.606Z,10.10
2023-03-12T09:58:26.232Z,10.70
2023-03-12T10:00:50.043Z,10.40
2023-03-12T10:03:31.243Z,10.40
2023-03-12T10:06:08.203Z,10.50
2023-03-12T10:08:43.749Z,10.50
2023-03-12T10:11:19.168Z,10.30
2023-03-12T10:14:03.086Z,10.40
2023-03-12T10:16:52.749Z,9.70
2023-03-12T10:19:33.574Z,9.80
2023-03-12T10:22:03.180Z,9.90
2023-03-12T10:24:42.229Z,9.80
2023-03-12T10:27:15.148Z,9.40
2023-03-12T10:29:44.783Z,9.00
2023-03-12T10:32:16.736Z,9.00
2023-03-12T10:34:45.802Z,9.30
2023-03-12T10:37:21.279Z,9.60
2023-03-12T10:39:45.065Z,9.50
2023-03-12T10:42:17.717Z,9.40
2023-03-12T10:44:42.818Z,9.70
2023-03-12T10:47:18.758Z,10.00
2023-03-12T10:49:42.347Z,10.10
2023-03-12T10:52:11.244Z,9.90
2023-03-12T10:54:38.183Z,10.00
2023-03-12T10:57:01.929Z,9.90
2023-03-12T10:59:31.205Z,9.80
2023-03-12T11:01:56.586Z,9.60
2023-03-12T11:04:24.783Z,9.80
2023-03-12T11:07:22.085Z,9.60
2023-03-12T11:09:45.928Z,9.60
2023-03-12T11:12:27.656Z,9.50
2023-03-12T11:14:51.926Z,9.70
2023-03-12T11:17:25.104Z,9.50
2023-03-12T11:19:48.746Z,9.40
2023-03-12T11:22:15.953Z,9.40
2023-03-12T11:24:58.234Z,9.60
2023-03-12T11:27:41.378Z,9.60
2023-03-12T11:30:08.167Z,9.60
2023-03-12T11:32:39.152Z,9.60
2023-03-12T11:35:04.371Z,9.80
2023-03-12T11:37:43.758Z,10.00
2023-03-12T11:40:26.810Z,9.80
2023-03-12T11:43:13.813Z,9.70
2023-03-12T11:45:50.583Z,9.70
2023-03-12T11:48:26.698Z,9.50
2023-03-12T11:51:06.904Z,9.20
2023-03-12T11:53:59.702Z,8.80
2023-03-12T11:56:29.545Z,8.60
2023-03-12T11:59:14.470Z,8.70
2023-03-12T12:01:49.647Z,8.70
2023-03-12T12:07:11.537Z,8.40
2023-03-12T12:09:43.948Z,8.30
2023-03-12T12:12:35.803Z,8.30
2023-03-12T12:15:21.063Z,8.10
2023-03-12T12:18:01.350Z,8.20
2023-03-12T12:20:38.840Z,8.40
2023-03-12T12:23:24.252Z,8.20
2023-03-12T12:26:10.736Z,8.50
2023-03-12T12:29:22.771Z,8.70
2023-03-12T12:31:52.612Z,8.60
2023-03-12T12:34:55.168Z,8.30
2023-03-12T12:37:31.793Z,8.40
2023-03-12T12:40:08.836Z,8.50
2023-03-12T12:42:35.206Z,8.50
2023-03-12T12:45:01.910Z,8.50
2023-03-12T12:47:38.712Z,8.30
2023-03-12T12:50:04.483Z,8.40
2023-03-12T12:52:29.838Z,8.40
2023-03-12T12:55:03.386Z,8.40
2023-03-12T12:57:35.302Z,8.50
2023-03-12T13:00:19.276Z,8.40
2023-03-12T13:02:47.935Z,8.30
2023-03-12T13:05:23.165Z,8.30
2023-03-12T13:07:46.763Z,8.40
2023-03-12T13:10:48.625Z,8.50
2023-03-12T13:13:23.367Z,8.50
2023-03-12T13:15:47.836Z,8.30
2023-03-12T13:18:25.773Z,8.30
2023-03-12T13:21:14.714Z,8.30
2023-03-12T13:23:48.128Z,8.20
2023-03-12T13:26:25.140Z,8.30
2023-03-12T13:29:23.463Z,8.20
2023-03-12T13:31:47.131Z,8.20
2023-03-12T13:34:45.992Z,8.20
2023-03-12T13:37:56.214Z,8.30
2023-03-12T13:40:55.614Z,8.30
2023-03-12T13:43:42.821Z,8.20
2023-03-12T13:46:10.447Z,8.30
2023-03-12T13:48:36.428Z,8.30
2023-03-12T13:51:03.972Z,8.20
2023-03-12T13:53:33.490Z,8.20
2023-03-12T13:56:05.971Z,8.10
2023-03-12T13:58:32.313Z,8.00
2023-03-12T14:01:03.850Z,8.00
2023-03-12T14:03:32.598Z,8.00
2023-03-12T14:06:00.750Z,7.90
2023-03-12T14:08:49.447Z,7.90
2023-03-12T14:11:33.698Z,7.90
2023-03-12T14:14:42.625Z,7.70
2023-03-12T14:17:06.848Z,7.60
2023-03-12T14:19:32.799Z,7.50
2023-03-12T14:22:01.514Z,7.40
2023-03-12T14:24:29.874Z,7.50
2023-03-12T14:26:55.454Z,7.40
2023-03-12T14:29:24.595Z,7.40
2023-03-12T14:31:50.299Z,7.20
2023-03-12T14:34:20.609Z,7.00
2023-03-12T14:36:48.997Z,7.00
2023-03-12T14:39:29.926Z,6.90
2023-03-12T14:42:01.161Z,6.90
2023-03-12T14:44:27.213Z,6.90
2023-03-12T14:47:00.742Z,6.80
2023-03-12T14:49:24.409Z,6.80
2023-03-12T14:51:47.943Z,6.80
2023-03-12T14:54:24.358Z,6.80
2023-03-12T14:56:48.304Z,6.80
2023-03-12T14:59:25.914Z,6.80
2023-03-12T15:01:50.049Z,6.70
2023-03-12T15:04:21.124Z,6.70
2023-03-12T15:06:47.719Z,6.70
2023-03-12T15:09:20.321Z,6.50
2023-03-12T15:11:45.221Z,6.40
2023-03-12T15:14:14.455Z,6.40
2023-03-12T15:16:38.224Z,6.40
2023-03-12T15:19:04.149Z,6.50
2023-03-12T15:21:29.279Z,6.40
2023-03-12T15:23:53.673Z,6.40
2023-03-12T15:26:38.102Z,6.50
2023-03-12T15:29:04.251Z,6.30
2023-03-12T15:31:29.684Z,6.20
2023-03-12T15:34:05.445Z,6.00
2023-03-12T15:36:31.997Z,5.90
2023-03-12T15:38:58.192Z,5.80
2023-03-12T15:41:24.819Z,5.70
2023-03-12T15:43:53.482Z,5.80
2023-03-12T15:46:19.706Z,5.80
2023-03-12T15:48:48.800Z,5.90
2023-03-12T15:51:17.334Z,5.90
2023-03-12T15:53:42.319Z,5.80
2023-03-12T15:56:19.962Z,5.90
2023-03-12T15:58:45.234Z,5.80
2023-03-12T16:01:12.710Z,5.90
2023-03-12T16:03:36.719Z,5.90
2023-03-12T16:06:00.229Z,5.80
2023-03-12T16:08:29.375Z,5.70
2023-03-12T16:10:55.595Z,5.60
2023-03-12T16:13:22.216Z,5.60
2023-03-12T16:15:47.849Z,5.50
2023-03-12T16:18:15.662Z,5.40
2023-03-12T16:20:39.188Z,5.40
2023-03-12T16:23:02.733Z,5.40
2023-03-12T16:25:26.730Z,5.40
2023-03-12T16:27:55.157Z,5.50
2023-03-12T16:30:24.119Z,5.40
2023-03-12T16:32:47.776Z,5.30
2023-03-12T16:35:15.812Z,5.30
2023-03-12T16:37:39.354Z,5.30
2023-03-12T16:40:02.875Z,5.30
2023-03-12T16:42:26.451Z,5.30
2023-03-12T16:44:51.389Z,5.20
2023-03-12T16:47:15.990Z,5.20
2023-03-12T16:49:39.611Z,5.10
2023-03-12T16:52:19.876Z,5.00
2023-03-12T16:54:43.474Z,5.00
2023-03-12T16:57:07.516Z,5.10
2023-03-12T16:59:33.307Z,5.00
2023-03-12T17:01:58.679Z,4.90
2023-03-12T17:04:22.410Z,4.90
2023-03-12T17:06:46.055Z,4.90
2023-03-12T17:09:09.905Z,4.80
2023-03-12T17:11:33.958Z,4.90
2023-03-12T17:14:01.883Z,4.90
2023-03-12T17:16:26.055Z,4.90
2023-03-12T17:18:51.212Z,4.90
2023-03-12T17:21:16.655Z,4.90
2023-03-12T17:23:40.316Z,4.90
2023-03-12T17:26:04.875Z,4.80
2023-03-12T17:28:28.552Z,4.80
2023-03-12T17:30:52.130Z,4.80
2023-03-12T17:33:20.447Z,4.70
2023-03-12T17:35:45.866Z,4.70
2023-03-12T17:38:09.989Z,4.80
2023-03-12T17:40:33.911Z,4.80
2023-03-12T17:42:57.931Z,4.70
2023-03-12T17:45:22.088Z,4.70
2023-03-12T17:47:45.787Z,4.70
2023-03-12T17:50:11.107Z,4.70
2023-03-12T17:52:36.355Z,4.80
2023-03-12T17:55:00.552Z,4.70
2023-03-12T17:57:25.015Z,4.70
2023-03-12T17:59:48.532Z,4.70
2023-03-12T18:02:14.313Z,4.70
2023-03-12T18:04:37.894Z,4.60
2023-03-12T18:07:01.644Z,4.60
2023-03-12T18:09:26.656Z,4.60
2023-03-12T18:11:50.274Z,4.60
2023-03-12T18:14:13.860Z,4.60
2023-03-12T18:16:37.679Z,4.50
2023-03-12T18:19:01.196Z,4.50
2023-03-12T18:21:25.035Z,4.50
2023-03-12T18:23:48.553Z,4.40
2023-03-12T18:26:13.555Z,4.50
2023-03-12T18:28:37.065Z,4.40
2023-03-12T18:31:00.693Z,4.50
2023-03-12T18:33:24.376Z,4.50
2023-03-12T18:35:48.015Z,4.50
2023-03-12T18:38:11.564Z,4.50
2023-03-12T18:40:35.248Z,4.50
2023-03-12T18:43:01.507Z,4.50
2023-03-12T18:45:25.118Z,4.40
2023-03-12T18:47:50.460Z,4.50
2023-03-12T18:50:14.592Z,4.40
2023-03-12T18:52:38.137Z,4.40
2023-03-12T18:55:01.845Z,4.40
2023-03-12T18:57:25.356Z,4.30
2023-03-12T18:59:50.303Z,4.30
2023-03-12T19:02:14.159Z,4.30
2023-03-12T19:04:37.740Z,4.30
2023-03-12T19:07:01.275Z,4.30
2023-03-12T19:09:24.952Z,4.30
2023-03-12T19:11:48.774Z,4.30
2023-03-12T19:14:12.618Z,4.30
2023-03-12T19:16:37.891Z,4.30
2023-03-12T19:19:02.796Z,4.30
2023-03-12T19:21:26.501Z,4.30
2023-03-12T19:23:50.234Z,4.40
2023-03-12T19:26:14.531Z,4.50
2023-03-12T19:28:39.082Z,4.40
2023-03-12T19:31:04.285Z,4.50
2023-03-12T19:33:29.669Z,4.40
2023-03-12T19:35:53.273Z,4.50
2023-03-12T19:38:17.771Z,4.50
2023-03-12T19:40:41.312Z,4.50
2023-03-12T19:43:04.912Z,4.50
2023-03-12T19:45:28.618Z,4.50
2023-03-12T19:47:52.663Z,4.50
2023-03-12T19:50:20.144Z,4.50
2023-03-12T19:52:43.733Z,4.60
2023-03-12T19:55:08.938Z,4.50
2023-03-12T19:57:32.858Z,4.50
2023-03-12T19:59:56.406Z,4.60
2023-03-12T20:02:20.047Z,4.60
2023-03-12T20:04:43.690Z,4.60
2023-03-12T20:07:09.000Z,4.60
2023-03-12T20:09:32.786Z,4.60
2023-03-12T20:11:56.399Z,4.70
2023-03-12T20:14:19.965Z,4.60
2023-03-12T20:16:43.562Z,4.70
2023-03-12T20:19:07.112Z,4.70
2023-03-12T20:21:30.933Z,4.70
2023-03-12T20:23:56.697Z,4.70
2023-03-12T20:26:20.244Z,4.80
2023-03-12T20:28:43.878Z,4.80
2023-03-12T20:31:11.558Z,4.80
2023-03-12T20:33:35.108Z,4.90
2023-03-12T20:35:58.716Z,4.90
2023-03-12T20:38:22.215Z,4.90
2023-03-12T20:40:48.083Z,5.00
2023-03-12T20:43:11.662Z,5.00
2023-03-12T20:45:36.040Z,5.00
2023-03-12T20:47:59.712Z,5.10
2023-03-12T20:50:23.293Z,5.10
2023-03-12T20:52:46.794Z,5.10
2023-03-12T20:55:10.993Z,5.10
2023-03-12T20:57:36.035Z,5.10
2023-03-12T21:00:00.090Z,5.20
2023-03-12T21:02:23.739Z,5.20
2023-03-12T21:04:49.446Z,5.30
2023-03-12T21:07:13.189Z,5.30
2023-03-12T21:09:37.404Z,5.30
2023-03-12T21:12:01.423Z,5.30
2023-03-12T21:14:26.436Z,5.40
2023-03-12T21:16:50.062Z,5.40
2023-03-12T21:19:13.771Z,5.50
2023-03-12T21:21:38.028Z,5.50
2023-03-12T21:24:02.623Z,5.60
2023-03-12T21:26:27.046Z,5.60
2023-03-12T21:28:50.611Z,5.60
2023-03-12T21:31:18.436Z,5.60
2023-03-12T21:33:42.246Z,5.60
2023-03-12T21:36:11.491Z,5.60
2023-03-12T21:38:36.927Z,5.60
2023-03-12T21:41:07.981Z,5.60
2023-03-12T21:43:31.724Z,5.70
2023-03-12T21:45:56.025Z,5.70
2023-03-12T21:48:21.428Z,5.80
2023-03-12T21:50:45.607Z,5.80
2023-03-12T21:53:22.940Z,5.80
2023-03-12T21:55:57.024Z,5.90
2023-03-12T21:58:20.558Z,5.90
2023-03-12T22:00:44.551Z,5.90
2023-03-12T22:03:08.143Z,5.90
2023-03-12T22:05:33.471Z,5.90
2023-03-12T22:07:57.101Z,5.90
2023-03-12T22:10:20.980Z,5.90
2023-03-12T22:12:45.138Z,5.90
2023-03-12T22:15:10.666Z,6.00
2023-03-12T22:17:35.025Z,5.90
2023-03-12T22:19:58.541Z,6.00
2023-03-12T22:22:23.885Z,6.00
2023-03-12T22:24:47.415Z,6.10
2023-03-12T22:27:11.041Z,6.10
2023-03-12T22:29:35.230Z,6.10
2023-03-12T22:31:59.091Z,6.10
2023-03-12T22:34:22.908Z,6.20
2023-03-12T22:36:46.538Z,6.20
2023-03-12T22:39:12.009Z,6.10
2023-03-12T22:41:35.759Z,6.20
2023-03-12T22:44:05.004Z,6.20
2023-03-12T22:46:29.121Z,6.20
2023-03-12T22:48:56.116Z,6.20
2023-03-12T22:51:20.626Z,6.20
2023-03-12T22:53:44.264Z,6.20
2023-03-12T22:56:12.266Z,6.20
2023-03-12T22:58:36.548Z,6.20
2023-03-12T23:01:02.154Z,6.30
2023-03-12T23:03:25.685Z,6.30
2023-03-12T23:05:49.697Z,6.30
2023-03-12T23:08:13.554Z,6.30
2023-03-12T23:10:37.192Z,6.30
2023-03-12T23:13:02.327Z,6.30
2023-03-12T23:15:35.140Z,6.20
2023-03-12T23:18:04.034Z,6.30
2023-03-12T23:20:27.657Z,6.20
2023-03-12T23:22:51.237Z,6.30
2023-03-12T23:25:14.739Z,6.30
2023-03-12T23:27:38.325Z,6.30
2023-03-12T23:30:03.321Z,6.30
2023-03-12T23:32:27.068Z,6.30
2023-03-12T23:34:50.816Z,6.30
2023-03-12T23:37:14.680Z,6.30
2023-03-12T23:39:53.653Z,6.20
2023-03-12T23:42:17.982Z,6.20
2023-03-12T23:44:41.471Z,6.20
2023-03-12T23:47:06.930Z,6.20
2023-03-12T23:49:30.433Z,6.20
2023-03-12T23:51:53.985Z,6.20
2023-03-12T23:54:17.598Z,6.20
2023-03-12T23:56:42.028Z,6.20
2023-03-12T23:59:06.929Z,6.20
